Time;durP1;ratioP1;P1;durP2;ratioP2;P2;SDS_P1;SDS_P2;PMS_P1;PMS_P2;Temp;Humidity;BMP_temperature;BMP_pressure;BME280_temperature;BME280_humidity;BME280_pressure;Samples;Min_cycle;Max_cycle;Signal;HPM_P1;HPM_P2
2022/06/12 00:01:10;;;;;;;2.90;2.50;;;;;;;12.52;77.82;97234.49;107878;1266;81825;-75
2022/06/12 00:03:42;;;;;;;5.20;2.60;;;;;;;12.35;78.49;97232.66;107811;1264;102345;-75
2022/06/12 00:06:16;;;;;;;4.70;2.60;;;;;;;12.34;79.17;97233.46;107710;1266;188786;-75
2022/06/12 00:08:47;;;;;;;6.10;2.60;;;;;;;12.43;79.35;97227.27;107816;1266;114956;-75
2022/06/12 00:11:21;;;;;;;4.20;2.50;;;;;;;12.52;79.35;97224.91;107918;1266;44138;-75
2022/06/12 00:13:54;;;;;;;4.80;2.10;;;;;;;12.57;79.25;97224.05;107763;1267;108168;-75
2022/06/12 00:16:26;;;;;;;4.00;2.60;;;;;;;12.49;79.01;97225.61;107888;1266;43172;-75
2022/06/12 00:18:58;;;;;;;4.40;2.70;;;;;;;12.47;79.12;97222.86;106849;1266;1118359;-75
2022/06/12 00:21:31;;;;;;;4.60;2.50;;;;;;;12.56;79.25;97223.73;108007;1267;41085;-75
2022/06/12 00:24:05;;;;;;;2.50;2.20;;;;;;;12.58;79.32;97220.27;107935;1267;152832;-75
2022/06/12 00:26:39;;;;;;;3.00;2.30;;;;;;;12.54;79.40;97217.45;108029;1265;45904;-75
2022/06/12 00:29:16;;;;;;;5.00;2.50;;;;;;;12.49;79.39;97216.37;106236;1267;2135208;-75
2022/06/12 00:31:51;;;;;;;3.80;2.10;;;;;;;12.52;79.67;97215.88;108056;1267;34547;-75
2022/06/12 00:34:26;;;;;;;5.70;2.50;;;;;;;12.57;79.68;97211.44;107825;1265;95922;-75
2022/06/12 00:36:58;;;;;;;4.40;2.10;;;;;;;12.57;79.42;97210.47;107952;1266;91893;-75
2022/06/12 00:39:32;;;;;;;3.30;2.20;;;;;;;12.54;79.57;97208.48;107792;1267;104625;-74
2022/06/12 00:42:05;;;;;;;3.40;2.50;;;;;;;12.53;79.61;97205.39;108031;1267;33424;-75
2022/06/12 00:44:43;;;;;;;5.70;2.60;;;;;;;12.52;79.71;97200.17;107654;1265;171237;-75
2022/06/12 00:47:16;;;;;;;4.10;2.30;;;;;;;12.49;79.69;97202.10;107930;1264;38756;-75
2022/06/12 00:49:51;;;;;;;3.30;2.00;;;;;;;12.43;79.74;97200.55;107659;1266;116564;-75
2022/06/12 00:52:26;;;;;;;3.80;2.60;;;;;;;12.41;79.82;97198.14;108035;1265;31752;-75
2022/06/12 00:55:00;;;;;;;5.50;2.50;;;;;;;12.43;79.78;97196.27;107656;1266;158197;-75
2022/06/12 00:57:31;;;;;;;3.60;1.90;;;;;;;12.34;79.69;97197.20;108062;1265;37281;-75
2022/06/12 01:00:09;;;;;;;4.10;2.10;;;;;;;12.28;79.74;97196.77;108013;1265;33863;-74
2022/06/12 01:02:41;;;;;;;2.90;2.10;;;;;;;12.26;79.96;97192.95;107587;1265;115552;-75
2022/06/12 01:08:12;;;;;;;2.30;2.10;;;;;;;12.23;79.96;97188.17;107608;1265;96575;-75
2022/06/12 01:10:47;;;;;;;2.80;2.20;;;;;;;12.10;80.32;97193.23;108014;1264;31186;-75
2022/06/12 01:13:22;;;;;;;5.30;3.10;;;;;;;12.08;80.62;97189.20;107626;1266;114594;-75
2022/06/12 01:15:57;;;;;;;4.80;2.60;;;;;;;12.14;81.00;97189.92;108012;1266;41918;-75
2022/06/12 01:18:33;;;;;;;2.50;2.20;;;;;;;12.15;80.83;97186.25;107690;1265;114291;-75
2022/06/12 01:21:26;;;;;;;3.20;2.40;;;;;;;12.19;80.88;97182.82;107945;1266;125181;-75
2022/06/12 01:24:16;;;;;;;2.80;2.20;;;;;;;12.24;80.86;97180.09;106627;1265;1200761;-75
2022/06/12 01:27:38;;;;;;;2.50;1.80;;;;;;;12.31;80.69;97183.88;107956;1264;105904;-75
2022/06/12 01:30:16;;;;;;;5.40;3.00;;;;;;;12.29;80.65;97182.72;107725;1267;88528;-75
2022/06/12 01:32:57;;;;;;;7.60;3.80;;;;;;;12.27;80.72;97186.04;107808;1265;112771;-75
2022/06/12 01:35:36;;;;;;;6.30;3.80;;;;;;;12.30;80.83;97187.23;107789;1265;131193;-75
2022/06/12 01:38:17;;;;;;;7.30;4.00;;;;;;;12.26;80.78;97186.15;107686;1265;143246;-75
2022/06/12 01:40:51;;;;;;;;;;;;;;;12.30;80.84;97185.27;107980;1266;33373;-75
2022/06/12 01:43:29;;;;;;;3.30;2.40;;;;;;;12.35;80.85;97180.49;106560;1265;1472116;-75
2022/06/12 01:46:08;;;;;;;3.90;2.30;;;;;;;12.40;80.56;97184.21;107857;1267;122420;-75
2022/06/12 01:48:45;;;;;;;3.20;2.50;;;;;;;12.38;80.44;97184.14;107578;1266;140326;-75
2022/06/12 01:51:23;;;;;;;2.40;2.00;;;;;;;12.30;80.37;97182.88;107992;1265;46418;-75
2022/06/12 01:54:03;;;;;;;2.90;2.10;;;;;;;12.13;80.44;97179.45;107638;1265;123697;-75
2022/06/12 01:56:43;;;;;;;4.10;2.40;;;;;;;12.01;81.14;97185.52;108077;1265;69154;-75
2022/06/12 01:59:20;;;;;;;3.20;2.10;;;;;;;12.02;81.73;97185.62;107706;1265;133066;-75
2022/06/12 02:01:56;;;;;;;2.80;1.70;;;;;;;12.02;81.47;97189.45;107919;1266;32915;-75
2022/06/12 02:04:34;;;;;;;4.70;2.50;;;;;;;12.05;81.64;97186.35;107716;1266;112925;-75
2022/06/12 02:07:14;;;;;;;3.50;2.40;;;;;;;12.07;81.66;97187.61;107924;1265;52412;-75
2022/06/12 02:09:49;;;;;;;3.50;2.70;;;;;;;12.16;81.82;97186.35;107715;1266;75807;-75
2022/06/12 02:15:24;;;;;;;4.60;2.70;;;;;;;12.03;81.58;97191.95;107715;1267;100070;-75
2022/06/12 02:18:01;;;;;;;4.50;3.00;;;;;;;11.99;81.80;97195.80;107898;1267;38314;-75
2022/06/12 02:20:36;;;;;;;5.30;3.50;;;;;;;12.00;82.22;97189.04;106993;1265;1153263;-75
2022/06/12 02:23:13;;;;;;;5.20;3.10;;;;;;;12.06;82.15;97190.11;107860;1265;102279;-75
2022/06/12 02:25:47;;;;;;;4.90;3.50;;;;;;;12.08;82.22;97189.04;107676;1265;140791;-75
2022/06/12 02:28:23;;;;;;;5.80;2.90;;;;;;;12.15;82.45;97187.68;107928;1264;40515;-75
2022/06/12 02:30:58;;;;;;;4.60;2.70;;;;;;;12.21;82.02;97189.30;106378;1265;1902624;-75
2022/06/12 02:33:34;;;;;;;4.60;2.70;;;;;;;12.24;81.84;97193.44;107898;1267;101031;-75
2022/06/12 02:36:11;;;;;;;5.30;2.90;;;;;;;12.27;81.80;97190.45;107647;1265;125597;-75
2022/06/12 02:38:46;;;;;;;5.20;3.20;;;;;;;12.34;81.88;97186.89;107959;1266;35782;-75
2022/06/12 02:41:27;;;;;;;4.30;3.20;;;;;;;12.43;81.99;97189.45;107589;1266;118941;-75
2022/06/12 02:44:04;;;;;;;4.80;2.60;;;;;;;12.50;81.79;97192.42;107873;1265;91613;-75
2022/06/12 02:46:40;;;;;;;9.00;3.20;;;;;;;12.55;81.65;97194.05;107541;1265;140698;-76
2022/06/12 02:49:12;;;;;;;6.40;3.00;;;;;;;12.61;81.57;97197.84;107939;1267;34718;-75
2022/06/12 02:51:54;;;;;;;5.30;3.40;;;;;;;12.70;81.56;97195.77;106053;1265;2114269;-75
2022/06/12 02:54:33;;;;;;;3.30;2.70;;;;;;;12.77;81.50;97199.89;107874;1266;41213;-75
2022/06/12 02:57:13;;;;;;;4.80;3.00;;;;;;;12.85;81.44;97197.62;107827;1266;109405;-75
2022/06/12 02:59:56;;;;;;;5.40;3.20;;;;;;;12.94;81.27;97199.83;107964;1267;45166;-75
2022/06/12 03:02:34;;;;;;;4.90;2.90;;;;;;;13.02;81.23;97199.39;107598;1265;142387;-75
2022/06/12 03:05:14;;;;;;;3.80;3.00;;;;;;;13.04;81.01;97192.07;107912;1265;66592;-76
2022/06/12 03:07:46;;;;;;;6.00;3.80;;;;;;;13.08;80.89;97194.66;107657;1267;124731;-75
2022/06/12 03:10:24;;;;;;;3.10;2.70;;;;;;;13.12;80.87;97192.02;107951;1265;33071;-75
2022/06/12 03:12:55;;;;;;;3.70;2.60;;;;;;;13.13;80.69;97186.05;106688;1266;1528569;-75
2022/06/12 03:15:37;;;;;;;5.20;3.30;;;;;;;13.12;80.56;97187.02;107907;1265;40749;-75
2022/06/12 03:18:19;;;;;;;4.40;2.90;;;;;;;13.11;80.60;97192.46;107768;1265;118106;-75
2022/06/12 03:21:06;;;;;;;4.00;3.10;;;;;;;13.14;80.67;97188.76;107994;1265;38179;-75
2022/06/12 03:23:53;;;;;;;4.60;2.90;;;;;;;13.15;80.70;97189.39;107939;1266;137644;-75
2022/06/12 03:26:44;;;;;;;4.50;2.50;;;;;;;13.20;80.82;97188.17;107893;1267;74235;-75
2022/06/12 03:29:35;;;;;;;4.60;3.40;;;;;;;13.27;80.65;97190.26;107865;1264;45170;-75
2022/06/12 03:32:15;;;;;;;7.10;3.60;;;;;;;13.32;80.62;97191.22;107816;1267;78256;-75
2022/06/12 03:34:54;;;;;;;7.70;3.00;;;;;;;13.37;80.55;97186.70;107918;1266;36898;-75
2022/06/12 03:37:33;;;;;;;4.60;3.00;;;;;;;13.42;80.46;97189.10;107707;1265;103803;-75
2022/06/12 03:40:14;;;;;;;8.20;4.00;;;;;;;13.44;80.32;97187.11;108047;1265;45178;-75
2022/06/12 03:42:52;;;;;;;7.00;3.40;;;;;;;13.43;80.22;97187.17;107857;1265;73279;-75
2022/06/12 03:45:30;;;;;;;5.90;3.20;;;;;;;13.38;80.21;97185.79;107974;1265;36859;-75
2022/06/12 03:48:13;;;;;;;5.20;3.20;;;;;;;13.32;80.48;97191.11;107801;1267;94907;-75
2022/06/12 03:50:53;;;;;;;4.40;3.00;;;;;;;13.34;80.66;97192.47;107952;1267;37122;-75
2022/06/12 03:53:30;;;;;;;3.60;3.30;;;;;;;13.41;80.72;97196.69;107768;1265;110967;-75
2022/06/12 03:59:03;;;;;;;4.40;3.40;;;;;;;13.54;80.44;97202.67;107697;1265;174570;-75
2022/06/12 04:01:35;;;;;;;4.30;2.90;;;;;;;13.59;80.43;97199.42;108027;1265;54828;-75
2022/06/12 04:04:08;;;;;;;5.50;3.20;;;;;;;13.66;80.25;97198.39;107845;1265;68331;-75
2022/06/12 04:06:41;;;;;;;6.40;3.50;;;;;;;13.73;80.21;97199.97;108024;1265;41570;-75
2022/06/12 04:09:19;;;;;;;8.00;3.50;;;;;;;13.83;80.08;97204.27;107903;1265;64526;-75
2022/06/12 04:11:55;;;;;;;5.30;3.00;;;;;;;13.97;79.98;97209.66;107953;1267;37888;-74
2022/06/12 04:14:31;;;;;;;6.40;3.10;;;;;;;14.11;79.77;97207.69;107638;1265;85417;-75
2022/06/12 04:17:06;;;;;;;5.00;3.40;;;;;;;14.20;79.54;97212.73;108026;1265;61081;-75
2022/06/12 04:22:27;;;;;;;5.40;3.00;;;;;;;14.40;78.91;97209.27;107999;1267;40539;-75
2022/06/12 04:25:06;;;;;;;3.70;2.70;;;;;;;14.53;78.90;97213.86;107720;1266;89919;-75
2022/06/12 04:27:41;;;;;;;7.60;3.30;;;;;;;14.67;78.65;97211.48;107992;1264;52105;-75
2022/06/12 04:30:23;;;;;;;4.80;3.20;;;;;;;14.78;78.41;97214.61;107891;1265;67592;-75
2022/06/12 04:33:19;;;;;;;4.60;3.50;;;;;;;14.89;78.06;97216.86;108008;1265;37549;-74
2022/06/12 04:35:54;;;;;;;4.70;2.90;;;;;;;14.97;77.44;97218.23;107976;1265;76971;-75
2022/06/12 04:38:27;;;;;;;5.10;2.50;;;;;;;15.01;77.16;97224.79;108045;1265;47107;-75
2022/06/12 04:41:00;;;;;;;4.90;3.00;;;;;;;15.01;76.77;97230.89;107753;1267;91011;-75
2022/06/12 04:43:31;;;;;;;4.70;3.00;;;;;;;14.98;76.62;97234.02;108070;1267;41673;-75
2022/06/12 04:46:03;;;;;;;5.60;3.30;;;;;;;14.96;76.46;97229.38;107821;1265;82551;-75
2022/06/12 04:48:39;;;;;;;7.00;3.10;;;;;;;14.96;76.52;97231.17;108028;1267;42371;-75
2022/06/12 04:51:12;;;;;;;4.10;2.90;;;;;;;15.01;76.46;97229.13;107797;1265;80862;-75
2022/06/12 04:53:46;;;;;;;4.40;3.20;;;;;;;15.11;76.59;97230.09;107929;1267;40576;-75
2022/06/12 04:56:20;;;;;;;4.90;3.40;;;;;;;15.32;76.27;97236.25;107861;1267;86132;-75
2022/06/12 04:58:52;;;;;;;5.40;3.40;;;;;;;15.51;75.91;97237.20;107918;1265;47468;-75
2022/06/12 05:01:25;;;;;;;5.30;3.70;;;;;;;15.66;75.17;97232.70;107845;1265;60898;-75
2022/06/12 05:03:56;;;;;;;5.20;3.10;;;;;;;15.57;74.56;97232.19;107908;1265;86228;-75
2022/06/12 05:06:28;;;;;;;4.70;3.00;;;;;;;15.71;75.11;97230.36;107961;1265;36851;-75
2022/06/12 05:09:01;;;;;;;5.20;3.20;;;;;;;16.00;74.99;97232.75;107817;1265;57623;-75
2022/06/12 05:11:32;;;;;;;5.60;2.90;;;;;;;16.42;75.24;97229.77;107948;1266;50837;-75
2022/06/12 05:14:04;;;;;;;5.60;3.00;;;;;;;16.82;74.50;97228.25;107829;1267;99509;-75
2022/06/12 05:16:39;;;;;;;4.70;2.90;;;;;;;16.82;73.43;97229.01;107901;1265;36304;-76
2022/06/12 05:19:14;;;;;;;4.70;2.80;;;;;;;16.85;73.36;97230.48;107778;1265;85464;-75
2022/06/12 05:21:45;;;;;;;5.20;2.90;;;;;;;18.12;74.69;97227.41;107900;1265;36122;-75
2022/06/12 05:24:17;;;;;;;3.30;2.70;;;;;;;20.92;73.52;97222.85;107865;1265;61473;-75
2022/06/12 05:26:50;;;;;;;4.60;2.80;;;;;;;23.69;67.97;97220.89;107996;1265;36173;-75
2022/06/12 05:29:25;;;;;;;3.30;2.40;;;;;;;25.73;64.05;97218.88;107841;1268;86935;-76
2022/06/12 05:31:57;;;;;;;3.20;2.40;;;;;;;27.56;58.33;97217.89;107911;1267;37930;-76
2022/06/12 05:34:29;;;;;;;3.10;2.00;;;;;;;28.75;55.51;97221.09;107705;1268;105222;-75
2022/06/12 05:37:01;;;;;;;4.00;2.30;;;;;;;29.78;51.46;97221.15;108024;1265;58330;-76
2022/06/12 05:39:33;;;;;;;4.20;2.30;;;;;;;31.14;50.92;97224.30;107958;1265;85750;-76
2022/06/12 05:42:05;;;;;;;3.80;2.20;;;;;;;32.07;46.48;97223.79;107973;1267;33729;-76
2022/06/12 05:44:37;;;;;;;4.70;1.90;;;;;;;32.24;43.71;97224.90;108034;1265;50093;-76
2022/06/12 05:47:10;;;;;;;3.50;1.70;;;;;;;32.59;43.25;97224.41;108011;1265;36104;-76
2022/06/12 05:49:42;;;;;;;3.50;2.00;;;;;;;33.50;41.81;97227.67;107940;1265;53688;-76
2022/06/12 05:52:13;;;;;;;3.40;1.80;;;;;;;34.12;40.01;97225.42;107973;1265;38979;-76
2022/06/12 05:54:44;;;;;;;3.00;1.70;;;;;;;33.98;37.89;97228.41;107905;1268;61726;-74
2022/06/12 05:57:17;;;;;;;5.70;2.00;;;;;;;33.99;38.36;97229.56;107930;1265;38276;-76
2022/06/12 05:59:48;;;;;;;3.10;1.90;;;;;;;32.52;36.96;97225.24;107903;1266;53163;-76
2022/06/12 06:02:20;;;;;;;3.30;2.20;;;;;;;31.46;37.61;97225.04;107932;1267;32665;-76
2022/06/12 06:04:51;;;;;;;3.80;1.80;;;;;;;30.39;38.01;97227.82;107866;1268;71113;-76
2022/06/12 06:07:23;;;;;;;2.80;2.00;;;;;;;29.23;38.36;97235.10;107818;1267;54867;-76
2022/06/12 06:09:54;;;;;;;4.70;2.20;;;;;;;28.49;40.11;97236.38;107974;1265;71751;-76
2022/06/12 06:12:26;;;;;;;3.50;2.10;;;;;;;28.49;40.03;97238.02;107939;1265;50425;-76
2022/06/12 06:14:58;;;;;;;4.00;1.90;;;;;;;29.74;40.96;97235.75;107952;1265;57472;-76
2022/06/12 06:17:30;;;;;;;3.90;1.90;;;;;;;31.68;38.86;97234.22;107960;1265;40356;-76
2022/06/12 06:20:02;;;;;;;3.20;1.60;;;;;;;33.36;38.31;97235.74;107899;1268;114130;-76
2022/06/12 06:22:33;;;;;;;2.20;1.40;;;;;;;34.44;34.81;97237.40;108056;1265;37712;-76
2022/06/12 06:25:04;;;;;;;3.00;1.80;;;;;;;34.77;34.15;97235.86;107948;1268;45834;-77
2022/06/12 06:27:36;;;;;;;3.50;1.70;;;;;;;34.99;33.46;97235.45;107954;1265;44035;-77
2022/06/12 06:30:09;;;;;;;2.30;1.10;;;;;;;35.75;33.10;97235.17;107777;1268;119313;-78
2022/06/12 06:32:40;;;;;;;3.60;1.50;;;;;;;36.04;33.18;97232.77;107923;1265;93727;-77
2022/06/12 06:35:13;;;;;;;1.50;1.10;;;;;;;37.67;33.03;97232.50;108032;1265;59093;-77
2022/06/12 06:37:45;;;;;;;3.80;1.20;;;;;;;39.15;32.09;97225.38;107710;1265;115915;-77
2022/06/12 06:40:20;;;;;;;2.90;1.10;;;;;;;39.82;29.44;97226.96;108008;1265;56236;-77
2022/06/12 06:42:52;;;;;;;4.70;1.50;;;;;;;39.77;30.06;97227.50;107787;1265;108898;-77
2022/06/12 06:48:14;;;;;;;3.70;1.60;;;;;;;38.26;25.47;97229.64;107737;1265;73232;-77
2022/06/12 06:50:46;;;;;;;3.60;1.20;;;;;;;37.86;27.91;97230.33;107927;1265;72952;-77
2022/06/12 06:53:18;;;;;;;4.50;1.20;;;;;;;38.00;26.83;97232.42;107954;1265;45468;-77
2022/06/12 06:55:50;;;;;;;2.30;1.20;;;;;;;38.58;27.76;97230.26;107941;1265;70167;-75
2022/06/12 06:58:23;;;;;;;1.70;1.20;;;;;;;39.70;26.77;97231.23;107843;1265;82240;-76
2022/06/12 07:00:55;;;;;;;2.00;1.30;;;;;;;39.53;24.99;97231.90;107978;1265;37481;-75
2022/06/12 07:03:28;;;;;;;2.00;1.20;;;;;;;39.25;25.16;97232.48;106901;1265;1253452;-75
2022/06/12 07:06:02;;;;;;;1.90;1.20;;;;;;;39.44;26.48;97236.58;107409;1268;132481;-75
2022/06/12 07:08:33;;;;;;;2.90;1.50;;;;;;;40.25;24.98;97234.69;107839;1265;90057;-76
2022/06/12 07:11:06;;;;;;;2.00;1.30;;;;;;;40.27;25.21;97237.69;107867;1265;95566;-76
2022/06/12 07:13:37;;;;;;;1.90;1.20;;;;;;;40.06;22.57;97240.00;108009;1265;38119;-76
2022/06/12 07:16:09;;;;;;;3.20;1.10;;;;;;;39.22;24.19;97238.00;107936;1265;73603;-77
2022/06/12 07:18:42;;;;;;;3.40;1.20;;;;;;;39.87;24.84;97237.39;108033;1265;43328;-77
2022/06/12 07:21:14;;;;;;;2.10;1.30;;;;;;;39.96;23.03;97234.91;107768;1265;109076;-77
2022/06/12 07:23:45;;;;;;;1.50;1.00;;;;;;;39.79;22.73;97229.71;108054;1265;35969;-77
2022/06/12 07:26:22;;;;;;;1.40;1.20;;;;;;;39.04;22.51;97235.61;107895;1265;70799;-77
2022/06/12 07:28:53;;;;;;;2.50;1.20;;;;;;;39.00;23.18;97234.41;107979;1265;40958;-77
2022/06/12 07:31:26;;;;;;;1.50;1.10;;;;;;;39.75;24.67;97228.02;107822;1268;71613;-77
2022/06/12 07:33:57;;;;;;;2.60;1.20;;;;;;;40.88;22.55;97227.17;107821;1265;77406;-77
2022/06/12 07:36:30;;;;;;;2.60;1.30;;;;;;;41.69;23.70;97226.73;107984;1265;44026;-77
2022/06/12 07:39:05;;;;;;;5.00;1.40;;;;;;;42.96;22.01;97230.68;107998;1267;53645;-77
2022/06/12 07:41:38;;;;;;;12.40;2.20;;;;;;;41.98;21.00;97225.23;108057;1265;46938;-78
2022/06/12 07:44:11;;;;;;;4.90;1.40;;;;;;;41.75;21.57;97222.86;107846;1265;92947;-77
2022/06/12 07:46:43;;;;;;;3.20;1.30;;;;;;;41.20;19.58;97224.02;108002;1265;40666;-77
2022/06/12 07:49:15;;;;;;;5.90;1.30;;;;;;;40.43;21.86;97221.67;107854;1266;95740;-77
2022/06/12 07:51:48;;;;;;;2.10;1.30;;;;;;;41.51;21.78;97218.48;107908;1266;67157;-78
2022/06/12 07:54:21;;;;;;;5.90;1.70;;;;;;;41.75;19.33;97219.23;106981;1265;1152732;-77
2022/06/12 07:56:53;;;;;;;1.20;1.00;;;;;;;40.13;21.02;97220.17;107970;1265;58331;-77
2022/06/12 07:59:25;;;;;;;2.30;1.50;;;;;;;39.91;20.05;97222.85;107814;1265;74640;-77
2022/06/12 08:01:57;;;;;;;1.40;1.20;;;;;;;38.82;21.07;97221.62;107954;1265;70283;-77
2022/06/12 08:04:29;;;;;;;2.70;1.50;;;;;;;37.54;20.56;97219.26;107837;1265;79362;-77
2022/06/12 08:07:01;;;;;;;1.50;1.30;;;;;;;36.58;22.61;97220.36;107994;1265;43633;-77
2022/06/12 08:09:33;;;;;;;3.60;1.50;;;;;;;36.14;22.66;97216.67;107907;1267;74769;-77
2022/06/12 08:12:05;;;;;;;2.60;1.20;;;;;;;36.07;23.90;97212.63;108100;1265;40172;-77
2022/06/12 08:14:36;;;;;;;1.30;1.20;;;;;;;38.38;24.36;97205.84;107995;1265;67107;-77
2022/06/12 08:17:11;;;;;;;1.40;1.20;;;;;;;40.84;22.63;97207.44;108026;1265;35819;-77
2022/06/12 08:22:31;;;;;;;1.50;1.20;;;;;;;40.89;20.12;97213.85;108048;1265;36661;-77
2022/06/12 08:25:03;;;;;;;2.60;1.20;;;;;;;40.75;19.89;97216.42;108091;1265;54931;-77
2022/06/12 08:27:36;;;;;;;1.40;1.20;;;;;;;40.87;20.50;97215.20;108193;1265;41679;-77
2022/06/12 08:30:10;;;;;;;1.70;1.30;;;;;;;40.23;19.53;97215.05;107896;1265;65851;-78
2022/06/12 08:32:45;;;;;;;2.00;1.60;;;;;;;40.74;21.13;97213.90;108040;1265;36464;-78
2022/06/12 08:35:21;;;;;;;1.80;1.20;;;;;;;42.57;21.01;97220.27;107728;1265;105479;-78
2022/06/12 08:37:53;;;;;;;2.70;1.60;;;;;;;43.42;20.71;97220.27;107920;1265;44101;-77
2022/06/12 08:40:35;;;;;;;1.50;1.40;;;;;;;44.39;20.11;97211.98;106707;1265;1557015;-77
2022/06/12 08:43:16;;;;;;;2.10;1.70;;;;;;;44.45;18.60;97214.69;107853;1266;86168;-78
2022/06/12 08:45:50;;;;;;;1.50;1.30;;;;;;;43.47;19.46;97214.52;107775;1265;78870;-77
2022/06/12 08:48:29;;;;;;;2.20;1.00;;;;;;;44.06;19.48;97211.04;107716;1265;256004;-77
2022/06/12 08:51:07;;;;;;;1.30;0.80;;;;;;;43.46;19.40;97206.92;107900;1266;80630;-77
2022/06/12 08:53:45;;;;;;;1.50;0.90;;;;;;;41.38;20.20;97205.36;107932;1265;61699;-77
2022/06/12 08:56:22;;;;;;;1.50;0.60;;;;;;;39.21;21.24;97203.50;107987;1267;34230;-77
2022/06/12 08:58:59;;;;;;;2.60;0.90;;;;;;;37.43;22.86;97205.80;107927;1265;55216;-77
2022/06/12 09:01:31;;;;;;;2.20;1.00;;;;;;;35.54;22.93;97198.60;108035;1265;38522;-76
2022/06/12 09:04:02;;;;;;;3.20;1.10;;;;;;;33.50;25.73;97208.66;107893;1265;57059;-76
2022/06/12 09:06:46;;;;;;;1.70;1.10;;;;;;;32.75;27.12;97205.98;108131;1265;32273;-76
2022/06/12 09:09:31;;;;;;;1.60;0.90;;;;;;;32.32;27.64;97202.26;107939;1265;68824;-76
2022/06/12 09:12:11;;;;;;;1.80;0.90;;;;;;;32.01;28.27;97196.80;107985;1265;40801;-76
2022/06/12 09:14:50;;;;;;;;;;;;;;;31.53;29.08;97197.91;108006;1265;87944;-76
2022/06/12 09:17:32;;;;;;;1.90;1.00;;;;;;;31.12;29.15;97193.73;108086;1265;34640;-76
2022/06/12 09:20:11;;;;;;;2.20;1.10;;;;;;;30.54;28.32;97191.02;108028;1265;59676;-76
2022/06/12 09:22:52;;;;;;;2.60;1.10;;;;;;;28.93;30.81;97187.27;108003;1265;39022;-76
2022/06/12 09:25:32;;;;;;;2.60;1.20;;;;;;;28.49;32.01;97190.16;107835;1265;55683;-76
2022/06/12 09:28:12;;;;;;;1.60;1.30;;;;;;;27.99;32.49;97184.48;107989;1264;36686;-75
2022/06/12 09:30:45;;;;;;;;;;;;;;;27.24;34.31;97182.56;107991;1265;56783;-76
2022/06/12 09:33:24;;;;;;;3.90;1.40;;;;;;;27.46;35.04;97188.48;107909;1264;58116;-75
2022/06/12 09:36:14;;;;;;;2.90;1.20;;;;;;;27.80;34.67;97187.79;107801;1265;85033;-75
2022/06/12 09:39:02;;;;;;;2.20;1.00;;;;;;;28.04;34.91;97182.60;107970;1265;42178;-75
2022/06/12 09:41:47;;;;;;;2.90;1.30;;;;;;;28.22;34.59;97180.48;108077;1265;41873;-75
2022/06/12 09:44:26;;;;;;;4.10;1.60;;;;;;;28.15;34.79;97176.92;108004;1264;86514;-76
2022/06/12 09:47:09;;;;;;;2.70;1.20;;;;;;;28.04;34.67;97171.78;107743;1265;85881;-76
2022/06/12 09:49:50;;;;;;;2.10;1.10;;;;;;;27.58;34.29;97166.71;107955;1265;36493;-76
2022/06/12 09:52:47;;;;;;;3.70;1.30;;;;;;;26.83;34.71;97164.42;107869;1265;119273;-75
2022/06/12 09:55:23;;;;;;;3.50;1.60;;;;;;;26.28;36.20;97163.83;107937;1265;34661;-75
2022/06/12 09:57:59;;;;;;;1.10;1.00;;;;;;;26.45;36.51;97164.02;107817;1265;76545;-75
2022/06/12 10:00:40;;;;;;;2.00;1.50;;;;;;;26.35;35.89;97168.83;107891;1267;46928;-75
2022/06/12 10:03:18;;;;;;;2.90;1.20;;;;;;;26.18;36.43;97160.73;107803;1265;106119;-75
2022/06/12 10:05:55;;;;;;;3.10;1.50;;;;;;;25.88;35.65;97155.78;107958;1265;82984;-75
2022/06/12 10:08:34;;;;;;;2.70;1.20;;;;;;;25.39;36.74;97150.45;107841;1266;93165;-75
2022/06/12 10:11:12;;;;;;;2.00;1.30;;;;;;;25.25;36.38;97152.91;107955;1266;39327;-75
2022/06/12 10:13:50;;;;;;;3.70;1.40;;;;;;;24.79;37.93;97152.33;107822;1265;59954;-75
2022/06/12 10:16:26;;;;;;;4.40;1.70;;;;;;;24.77;38.16;97151.74;107900;1265;34888;-75
2022/06/12 10:19:03;;;;;;;2.00;1.30;;;;;;;24.46;38.82;97149.57;107875;1265;53273;-75
2022/06/12 10:21:38;;;;;;;3.40;1.60;;;;;;;24.27;39.50;97147.34;108024;1265;60222;-75
2022/06/12 10:24:13;;;;;;;3.60;1.70;;;;;;;24.22;39.48;97141.66;107840;1265;43210;-76
2022/06/12 10:26:57;;;;;;;2.10;1.50;;;;;;;24.25;40.11;97134.45;107935;1265;60192;-76
2022/06/12 10:29:41;;;;;;;2.70;1.50;;;;;;;24.35;39.84;97132.05;107784;1265;85544;-75
2022/06/12 10:32:17;;;;;;;3.10;1.70;;;;;;;24.12;39.18;97126.65;107869;1265;48364;-75
2022/06/12 10:34:49;;;;;;;3.00;1.50;;;;;;;23.90;40.15;97124.75;108009;1265;60039;-75
2022/06/12 10:37:24;;;;;;;3.00;1.60;;;;;;;23.98;41.19;97124.33;107900;1265;50118;-75
2022/06/12 10:40:11;;;;;;;1.50;1.30;;;;;;;24.23;41.14;97122.70;107823;1265;79725;-75
2022/06/12 10:42:46;;;;;;;4.90;1.90;;;;;;;24.71;42.01;97123.73;107830;1265;86512;-75
2022/06/12 10:45:28;;;;;;;2.60;1.40;;;;;;;25.19;40.79;97114.89;107851;1265;64939;-76
2022/06/12 10:48:02;;;;;;;2.90;1.70;;;;;;;25.29;40.39;97112.73;107946;1265;32880;-75
2022/06/12 10:50:38;;;;;;;3.00;1.60;;;;;;;25.11;40.16;97113.52;107975;1265;48662;-76
2022/06/12 10:53:19;;;;;;;3.60;1.50;;;;;;;24.81;39.87;97111.53;107909;1266;43006;-75
2022/06/12 10:55:57;;;;;;;2.80;1.60;;;;;;;24.66;40.39;97106.75;106546;1265;1989180;-75
2022/06/12 10:59:03;;;;;;;2.90;1.70;;;;;;;24.64;40.02;97109.20;108053;1264;37567;-75
2022/06/12 11:01:44;;;;;;;3.30;1.40;;;;;;;24.75;40.82;97103.52;107962;1265;36329;-75
2022/06/12 11:04:32;;;;;;;2.90;1.50;;;;;;;25.16;40.47;97097.71;107909;1265;40366;-75
2022/06/12 11:07:17;;;;;;;3.60;1.60;;;;;;;25.04;40.00;97096.02;108086;1265;35757;-75
2022/06/12 11:10:01;;;;;;;2.80;1.40;;;;;;;25.28;40.21;97100.17;107898;1265;40500;-75
2022/06/12 11:12:58;;;;;;;3.40;1.30;;;;;;;25.46;40.02;97099.46;107865;1265;77797;-75
2022/06/12 11:15:44;;;;;;;3.60;1.60;;;;;;;25.46;39.43;97100.38;107897;1265;35074;-75
2022/06/12 11:18:25;;;;;;;3.00;1.80;;;;;;;25.51;40.13;97100.39;107784;1265;111430;-75
2022/06/12 11:21:05;;;;;;;4.60;1.50;;;;;;;25.32;39.60;97101.09;108026;1265;35476;-75
2022/06/12 11:24:04;;;;;;;2.80;1.60;;;;;;;25.32;40.75;97099.23;107931;1265;91398;-75
2022/06/12 11:26:54;;;;;;;2.60;1.50;;;;;;;25.71;41.42;97096.30;107983;1265;86254;-75
2022/06/12 11:29:49;;;;;;;4.30;1.60;;;;;;;26.10;41.63;97096.17;107810;1265;71232;-75
2022/06/12 11:32:34;;;;;;;2.70;1.40;;;;;;;26.29;40.81;97094.66;107969;1265;38320;-75
2022/06/12 11:35:28;;;;;;;2.70;1.60;;;;;;;26.47;39.97;97087.84;107801;1265;115820;-75
2022/06/12 11:38:19;;;;;;;2.40;1.40;;;;;;;26.33;37.93;97089.89;107832;1266;81641;-75
2022/06/12 11:41:00;;;;;;;3.60;1.70;;;;;;;25.37;38.71;97089.92;107554;1265;105862;-75
2022/06/12 11:43:37;;;;;;;2.80;1.30;;;;;;;25.15;39.45;97088.23;107983;1265;43057;-75
2022/06/12 11:46:25;;;;;;;2.60;1.40;;;;;;;24.93;39.49;97080.90;107733;1265;93888;-75
2022/06/12 11:49:13;;;;;;;3.40;1.40;;;;;;;24.97;39.10;97077.27;107929;1265;37325;-75
2022/06/12 11:51:54;;;;;;;1.80;1.40;;;;;;;25.15;40.81;97074.13;107828;1264;90930;-75
2022/06/12 11:54:39;;;;;;;2.20;1.70;;;;;;;25.56;39.89;97074.09;107980;1265;36034;-75
2022/06/12 11:57:20;;;;;;;2.50;1.30;;;;;;;25.81;40.43;97070.23;107839;1266;70909;-75
2022/06/12 12:00:06;;;;;;;2.30;1.50;;;;;;;26.07;39.67;97068.35;107908;1265;81858;-75
2022/06/12 12:02:55;;;;;;;2.20;1.30;;;;;;;25.98;39.27;97067.84;107737;1265;110406;-75
2022/06/12 12:05:48;;;;;;;2.90;1.20;;;;;;;25.76;38.54;97063.09;107968;1265;39961;-75
2022/06/12 12:08:38;;;;;;;2.20;1.40;;;;;;;25.29;37.45;97062.71;107949;1265;50688;-75
2022/06/12 12:11:13;;;;;;;3.60;1.20;;;;;;;24.96;38.94;97054.38;107795;1265;103193;-75
2022/06/12 12:13:48;;;;;;;1.30;1.00;;;;;;;25.14;39.99;97051.79;108020;1265;37199;-75
2022/06/12 12:16:32;;;;;;;3.30;1.20;;;;;;;25.52;40.49;97047.81;107908;1265;68296;-75
2022/06/12 12:19:07;;;;;;;1.80;1.40;;;;;;;25.77;39.99;97048.22;108005;1265;39889;-75
2022/06/12 12:21:43;;;;;;;2.00;1.40;;;;;;;25.68;39.71;97043.88;107922;1265;64304;-75
2022/06/12 12:24:18;;;;;;;2.40;1.60;;;;;;;25.56;38.86;97042.05;107888;1265;36804;-75
2022/06/12 12:26:52;;;;;;;2.00;1.30;;;;;;;25.03;39.07;97045.99;107755;1266;106072;-75